createdAt,value
2017-12-11T00:00:52.082Z,12.00
2017-12-11T00:03:17.823Z,12.13
2017-12-11T00:05:43.571Z,11.83
2017-12-11T00:08:09.320Z,12.40
2017-12-11T00:10:35.074Z,12.47
2017-12-11T00:13:00.823Z,10.33
2017-12-11T00:15:26.574Z,10.47
2017-12-11T00:17:52.330Z,11.37
2017-12-11T00:20:18.083Z,12.30
2017-12-11T00:22:46.823Z,11.43
2017-12-11T00:25:12.584Z,12.30
2017-12-11T00:27:38.333Z,12.17
2017-12-11T00:30:04.095Z,12.57
2017-12-11T00:32:29.828Z,12.27
2017-12-11T00:34:55.583Z,10.43
2017-12-11T00:37:21.316Z,10.93
2017-12-11T00:39:47.086Z,11.20
2017-12-11T00:42:12.822Z,11.20
2017-12-11T00:44:38.589Z,8.93
2017-12-11T00:47:04.346Z,12.03
2017-12-11T00:49:30.088Z,11.83
2017-12-11T00:51:55.851Z,12.17
2017-12-11T00:54:21.586Z,12.07
2017-12-11T00:56:47.341Z,12.40
2017-12-11T00:59:13.075Z,12.87
2017-12-11T01:01:38.836Z,12.83
2017-12-11T01:04:04.589Z,12.70
2017-12-11T01:06:30.347Z,12.27
2017-12-11T01:08:56.100Z,13.23
2017-12-11T01:11:21.838Z,12.70
2017-12-11T01:13:47.598Z,13.10
2017-12-11T01:16:13.357Z,12.40
2017-12-11T01:18:39.091Z,13.87
2017-12-11T01:21:04.847Z,13.27
2017-12-11T01:23:30.612Z,13.10
2017-12-11T01:25:56.354Z,12.80
2017-12-11T01:28:22.099Z,13.93
2017-12-11T01:30:47.853Z,13.40
2017-12-11T01:33:13.607Z,14.57
2017-12-11T01:35:39.352Z,15.03
2017-12-11T01:38:05.096Z,14.23
2017-12-11T01:40:30.863Z,14.47
2017-12-11T01:42:56.611Z,15.67
2017-12-11T01:45:22.367Z,14.80
2017-12-11T01:47:48.132Z,14.40
2017-12-11T01:50:13.883Z,15.37
2017-12-11T01:52:39.624Z,16.97
2017-12-11T01:55:05.375Z,14.97
2017-12-11T01:57:31.126Z,13.93
2017-12-11T01:59:56.875Z,14.47
2017-12-11T02:02:22.661Z,13.47
2017-12-11T02:04:48.414Z,14.37
2017-12-11T02:07:14.161Z,15.30
2017-12-11T02:09:39.915Z,13.40
2017-12-11T02:12:05.654Z,14.90
2017-12-11T02:14:31.410Z,12.10
2017-12-11T02:16:57.152Z,14.00
2017-12-11T02:19:22.911Z,13.87
2017-12-11T02:21:48.655Z,15.07
2017-12-11T02:24:14.406Z,15.27
2017-12-11T02:26:40.172Z,15.23
2017-12-11T02:29:05.923Z,15.27
2017-12-11T02:31:31.700Z,14.60
2017-12-11T02:33:57.444Z,15.87
2017-12-11T02:36:23.191Z,13.57
2017-12-11T02:38:48.982Z,14.27
2017-12-11T02:41:14.726Z,14.17
2017-12-11T02:43:40.469Z,12.97
2017-12-11T02:46:06.222Z,12.87
2017-12-11T02:48:31.991Z,13.07
2017-12-11T02:50:57.756Z,13.73
2017-12-11T02:53:23.500Z,12.37
2017-12-11T02:55:49.261Z,12.27
2017-12-11T02:58:15.023Z,11.93
2017-12-11T03:00:40.767Z,11.77
2017-12-11T03:03:06.523Z,11.57
2017-12-11T03:05:32.270Z,11.60
2017-12-11T03:07:58.019Z,11.93
2017-12-11T03:10:23.784Z,13.37
2017-12-11T03:12:49.529Z,12.83
2017-12-11T03:15:15.283Z,13.43
2017-12-11T03:17:41.030Z,13.47
2017-12-11T03:20:06.774Z,14.30
2017-12-11T03:22:32.527Z,14.23
2017-12-11T03:24:58.271Z,14.33
2017-12-11T03:27:24.023Z,13.10
2017-12-11T03:29:49.770Z,13.47
2017-12-11T03:32:15.526Z,13.77
2017-12-11T03:34:41.269Z,13.60
2017-12-11T03:37:07.030Z,14.43
2017-12-11T03:39:32.784Z,14.27
2017-12-11T03:41:58.531Z,14.33
2017-12-11T03:44:26.005Z,13.70
2017-12-11T03:46:51.743Z,13.93
2017-12-11T03:49:17.504Z,13.90
2017-12-11T03:51:43.251Z,13.43
2017-12-11T03:54:09.007Z,14.43
2017-12-11T03:56:34.752Z,15.43
2017-12-11T03:59:00.508Z,15.40
2017-12-11T04:01:26.605Z,14.37
2017-12-11T04:03:53.576Z,15.23
2017-12-11T04:06:19.395Z,15.80
2017-12-11T04:08:45.153Z,14.87
2017-12-11T04:11:10.899Z,16.00
2017-12-11T04:13:36.656Z,15.90
2017-12-11T04:16:02.398Z,15.33
2017-12-11T04:18:28.151Z,14.50
2017-12-11T04:20:53.903Z,14.23
2017-12-11T04:23:19.635Z,13.13
2017-12-11T04:25:45.391Z,14.20
2017-12-11T04:28:11.119Z,13.20
2017-12-11T04:30:36.891Z,14.37
2017-12-11T04:33:02.641Z,13.73
2017-12-11T04:35:28.425Z,13.53
2017-12-11T04:37:54.179Z,12.60
2017-12-11T04:40:19.935Z,14.87
2017-12-11T04:42:45.684Z,13.87
2017-12-11T04:45:11.491Z,13.80
2017-12-11T04:47:37.248Z,14.07
2017-12-11T04:50:03.030Z,15.53
2017-12-11T04:52:28.775Z,15.33
2017-12-11T04:54:54.537Z,14.83
2017-12-11T04:57:20.291Z,15.37
2017-12-11T04:59:46.052Z,14.37
2017-12-11T05:02:11.819Z,15.80
2017-12-11T05:04:37.576Z,17.53
2017-12-11T05:07:03.353Z,17.20
2017-12-11T05:09:29.100Z,15.50
2017-12-11T05:11:54.860Z,15.43
2017-12-11T05:14:20.610Z,13.93
2017-12-11T05:16:46.363Z,13.63
2017-12-11T05:19:12.232Z,13.73
2017-12-11T05:21:38.007Z,12.73
2017-12-11T05:24:03.753Z,12.83
2017-12-11T05:26:29.514Z,12.57
2017-12-11T05:28:55.275Z,13.60
2017-12-11T05:31:21.027Z,14.37
2017-12-11T05:33:46.783Z,16.27
2017-12-11T05:36:12.539Z,16.10
2017-12-11T05:38:38.299Z,17.17
2017-12-11T05:41:04.059Z,17.30
2017-12-11T05:43:29.815Z,18.30
2017-12-11T05:45:55.578Z,18.27
2017-12-11T05:48:21.330Z,16.90
2017-12-11T05:50:47.099Z,18.70
2017-12-11T05:53:12.858Z,18.30
2017-12-11T05:55:38.606Z,18.70
2017-12-11T05:58:04.372Z,18.37
2017-12-11T06:00:30.121Z,19.63
2017-12-11T06:02:55.883Z,18.57
2017-12-11T06:05:21.626Z,18.83
2017-12-11T06:07:47.394Z,19.10
2017-12-11T06:10:13.143Z,18.93
2017-12-11T06:12:38.912Z,20.07
2017-12-11T06:15:04.665Z,19.23
2017-12-11T06:17:30.436Z,18.13
2017-12-11T06:19:56.179Z,17.70
2017-12-11T06:22:21.947Z,17.03
2017-12-11T06:24:47.698Z,16.00
2017-12-11T06:27:13.442Z,16.07
2017-12-11T06:29:39.235Z,17.17
2017-12-11T06:32:04.976Z,17.70
2017-12-11T06:34:30.730Z,17.00
2017-12-11T06:36:56.469Z,14.37
2017-12-11T06:39:22.236Z,13.33
2017-12-11T06:41:47.968Z,12.40
2017-12-11T06:44:13.727Z,13.23
2017-12-11T06:46:39.471Z,12.83
2017-12-11T06:49:05.220Z,12.30
2017-12-11T06:51:30.963Z,12.13
2017-12-11T06:53:56.725Z,12.53
2017-12-11T06:56:22.459Z,12.60
2017-12-11T06:58:48.228Z,12.10
2017-12-11T07:01:13.963Z,12.37
2017-12-11T07:03:39.745Z,12.63
2017-12-11T07:06:05.484Z,11.93
2017-12-11T07:08:31.236Z,11.47
2017-12-11T07:10:56.971Z,12.33
2017-12-11T07:13:22.708Z,11.60
2017-12-11T07:15:48.458Z,13.00
2017-12-11T07:18:14.231Z,12.33
2017-12-11T07:20:39.982Z,13.20
2017-12-11T07:23:05.714Z,12.83
2017-12-11T07:25:31.460Z,11.83
2017-12-11T07:27:57.211Z,12.67
2017-12-11T07:30:22.983Z,13.53
2017-12-11T07:32:48.711Z,13.63
2017-12-11T07:35:14.459Z,17.57
2017-12-11T07:37:40.195Z,17.50
2017-12-11T07:40:05.936Z,16.20
2017-12-11T07:42:31.683Z,15.73
2017-12-11T07:44:57.440Z,15.30
2017-12-11T07:47:23.183Z,14.97
2017-12-11T07:49:48.948Z,13.70
2017-12-11T07:52:14.682Z,13.10
2017-12-11T07:54:40.447Z,13.97
2017-12-11T07:57:06.183Z,15.67
2017-12-11T07:59:31.918Z,14.47
2017-12-11T08:01:57.666Z,17.03
2017-12-11T08:04:23.405Z,19.07
2017-12-11T08:06:49.157Z,18.90
2017-12-11T08:09:14.895Z,21.83
2017-12-11T08:11:40.632Z,17.13
2017-12-11T08:14:06.375Z,15.53
2017-12-11T08:16:32.135Z,16.13
2017-12-11T08:18:57.880Z,16.37
2017-12-11T08:21:23.640Z,16.20
2017-12-11T08:23:49.387Z,18.43
2017-12-11T08:26:15.160Z,17.50
2017-12-11T08:28:40.923Z,17.23
2017-12-11T08:31:06.676Z,15.60
2017-12-11T08:33:32.420Z,15.27
2017-12-11T08:35:58.167Z,16.63
2017-12-11T08:38:23.919Z,14.83
2017-12-11T08:40:49.697Z,15.87
2017-12-11T08:43:15.419Z,16.03
2017-12-11T08:45:41.159Z,15.80
2017-12-11T08:48:06.899Z,15.47
2017-12-11T08:50:32.644Z,16.20
2017-12-11T08:52:58.403Z,16.23
2017-12-11T08:55:31.267Z,17.87
2017-12-11T08:57:57.028Z,19.00
2017-12-11T09:00:22.779Z,19.97
2017-12-11T09:02:48.544Z,20.80
2017-12-11T09:05:14.295Z,19.73
2017-12-11T09:07:40.052Z,27.23
2017-12-11T09:10:05.791Z,26.17
2017-12-11T09:12:31.539Z,24.27
2017-12-11T09:14:57.291Z,25.70
2017-12-11T09:17:23.046Z,29.63
2017-12-11T09:19:48.792Z,26.43
2017-12-11T09:22:14.530Z,26.73
2017-12-11T09:24:40.278Z,24.73
2017-12-11T09:27:06.016Z,24.47
2017-12-11T09:29:31.799Z,23.67
2017-12-11T09:31:57.544Z,22.97
2017-12-11T09:34:23.303Z,22.20
2017-12-11T09:36:49.051Z,24.77
2017-12-11T09:39:14.796Z,25.80
2017-12-11T09:41:40.535Z,25.37
2017-12-11T09:44:06.288Z,22.40
2017-12-11T09:46:32.023Z,27.63
2017-12-11T09:48:57.772Z,28.27
2017-12-11T09:51:23.515Z,27.43
2017-12-11T09:53:49.259Z,26.20
2017-12-11T09:56:14.998Z,24.83
2017-12-11T09:58:40.742Z,28.33
2017-12-11T10:01:06.483Z,28.53
2017-12-11T10:03:32.250Z,30.57
2017-12-11T10:05:57.991Z,26.97
2017-12-11T10:08:23.744Z,29.53
2017-12-11T10:10:49.503Z,28.83
2017-12-11T10:13:15.240Z,31.07
2017-12-11T10:15:40.995Z,32.60
2017-12-11T10:18:06.736Z,35.07
2017-12-11T10:20:32.492Z,34.50
2017-12-11T10:22:58.228Z,33.67
2017-12-11T10:25:23.989Z,30.10
2017-12-11T10:27:49.741Z,31.60
2017-12-11T10:30:15.499Z,34.70
2017-12-11T10:32:41.244Z,32.43
2017-12-11T10:35:07.001Z,29.17
2017-12-11T10:37:32.745Z,28.37
2017-12-11T10:39:58.500Z,28.53
2017-12-11T10:42:24.244Z,28.67
2017-12-11T10:44:50.012Z,26.93
2017-12-11T10:47:15.751Z,27.03
2017-12-11T10:49:41.516Z,26.63
2017-12-11T10:52:07.269Z,24.73
2017-12-11T10:54:33.023Z,25.53
2017-12-11T10:56:58.771Z,24.67
2017-12-11T10:59:24.514Z,24.53
2017-12-11T11:01:50.260Z,24.60
2017-12-11T11:04:16.007Z,25.17
2017-12-11T11:06:41.764Z,25.43
2017-12-11T11:09:07.494Z,26.87
2017-12-11T11:11:33.247Z,27.37
2017-12-11T11:13:58.978Z,24.67
2017-12-11T11:16:24.744Z,46.90
2017-12-11T11:18:50.480Z,36.10
2017-12-11T11:21:16.233Z,28.37
2017-12-11T11:23:41.975Z,35.50
2017-12-11T11:26:07.736Z,42.47
2017-12-11T11:28:33.476Z,30.17
2017-12-11T11:30:59.233Z,18.43
2017-12-11T11:33:24.994Z,18.37
2017-12-11T11:35:50.732Z,19.87
2017-12-11T11:38:16.499Z,17.63
2017-12-11T11:40:42.236Z,19.23
2017-12-11T11:43:07.996Z,16.67
2017-12-11T11:45:33.739Z,23.40
2017-12-11T11:47:59.486Z,34.20
2017-12-11T11:50:25.230Z,29.73
2017-12-11T11:52:51.001Z,33.47
2017-12-11T11:55:16.751Z,23.23
2017-12-11T11:57:42.515Z,30.57
2017-12-11T12:00:08.286Z,34.30
2017-12-11T12:02:34.031Z,29.67
2017-12-11T12:04:59.787Z,25.37
2017-12-11T12:07:25.532Z,28.60
2017-12-11T12:09:51.268Z,22.10
2017-12-11T12:12:17.043Z,24.43
2017-12-11T12:14:42.788Z,21.33
2017-12-11T12:17:08.544Z,20.30
2017-12-11T12:19:34.299Z,17.97
2017-12-11T12:22:00.234Z,16.03
2017-12-11T12:24:26.051Z,20.05
2017-12-11T12:26:51.798Z,21.30
2017-12-11T12:29:17.575Z,36.67
2017-12-11T12:31:43.333Z,27.20
2017-12-11T12:34:09.097Z,20.73
2017-12-11T12:36:34.855Z,18.23
2017-12-11T12:39:00.627Z,17.10
2017-12-11T12:41:26.391Z,16.93
2017-12-11T12:43:52.259Z,17.10
2017-12-11T12:46:18.002Z,19.17
2017-12-11T12:48:43.776Z,19.60
2017-12-11T12:51:09.623Z,27.67
2017-12-11T12:53:35.390Z,28.97
2017-12-11T12:56:01.148Z,26.97
2017-12-11T12:58:26.910Z,58.77
2017-12-11T13:00:52.664Z,63.70
2017-12-11T13:03:18.411Z,62.87
2017-12-11T13:05:44.192Z,52.30
2017-12-11T13:08:09.937Z,30.27
2017-12-11T13:10:35.699Z,20.63
2017-12-11T13:13:01.452Z,20.27
2017-12-11T13:15:27.213Z,20.87
2017-12-11T13:17:52.963Z,20.43
2017-12-11T13:20:18.757Z,34.17
2017-12-11T13:22:44.514Z,41.07
2017-12-11T13:25:10.272Z,34.70
2017-12-11T13:27:36.026Z,24.73
2017-12-11T13:30:01.820Z,22.97
2017-12-11T13:32:27.571Z,35.03
2017-12-11T13:34:53.327Z,31.63
2017-12-11T13:37:19.076Z,25.87
2017-12-11T13:39:44.855Z,25.07
2017-12-11T13:42:10.620Z,27.80
2017-12-11T13:44:36.370Z,24.23
2017-12-11T13:47:02.135Z,30.17
2017-12-11T13:49:27.884Z,27.87
2017-12-11T13:51:53.656Z,19.47
2017-12-11T13:54:19.526Z,22.17
2017-12-11T13:56:46.757Z,25.03
2017-12-11T13:59:13.884Z,26.35
2017-12-11T14:01:39.811Z,36.53
2017-12-11T14:04:05.567Z,28.07
2017-12-11T14:06:31.334Z,28.17
2017-12-11T14:08:57.067Z,28.53
2017-12-11T14:11:22.882Z,23.83
2017-12-11T14:13:48.621Z,24.27
2017-12-11T14:16:14.376Z,29.00
2017-12-11T14:18:40.125Z,29.10
2017-12-11T14:21:05.862Z,26.67
2017-12-11T14:23:31.617Z,28.40
2017-12-11T14:25:57.423Z,27.27
2017-12-11T14:28:23.195Z,36.27
2017-12-11T14:30:48.939Z,28.40
2017-12-11T14:33:14.695Z,28.27
2017-12-11T14:35:40.431Z,36.03
2017-12-11T14:38:06.191Z,42.83
2017-12-11T14:40:31.979Z,41.37
2017-12-11T14:42:57.826Z,36.83
2017-12-11T14:45:23.679Z,36.23
2017-12-11T14:47:49.549Z,32.73
2017-12-11T14:50:15.379Z,35.57
2017-12-11T14:52:41.122Z,28.37
2017-12-11T14:55:06.855Z,30.70
2017-12-11T14:57:32.617Z,30.57
2017-12-11T14:59:58.470Z,30.17
2017-12-11T15:02:24.227Z,31.40
2017-12-11T15:04:49.961Z,32.10
2017-12-11T15:07:15.699Z,30.47
2017-12-11T15:09:41.584Z,29.27
2017-12-11T15:12:07.323Z,30.87
2017-12-11T15:14:33.063Z,32.10
2017-12-11T15:16:58.796Z,39.73
2017-12-11T15:19:24.551Z,34.90
2017-12-11T15:21:50.320Z,32.83
2017-12-11T15:24:16.081Z,32.03
2017-12-11T15:26:41.840Z,31.60
2017-12-11T15:29:07.597Z,31.10
2017-12-11T15:31:33.343Z,30.83
2017-12-11T15:33:59.105Z,28.70
2017-12-11T15:36:24.881Z,29.07
2017-12-11T15:38:50.716Z,29.63
2017-12-11T15:41:16.473Z,34.67
2017-12-11T15:43:42.226Z,39.60
2017-12-11T15:46:07.970Z,39.00
2017-12-11T15:48:33.740Z,42.70
2017-12-11T15:50:59.547Z,48.27
2017-12-11T15:53:25.351Z,40.93
2017-12-11T15:55:51.278Z,52.80
2017-12-11T15:58:17.119Z,45.10
2017-12-11T16:00:43.069Z,45.93
2017-12-11T16:03:08.813Z,44.10
2017-12-11T16:05:34.559Z,39.70
2017-12-11T16:08:00.331Z,45.07
2017-12-11T16:10:26.089Z,50.53
2017-12-11T16:12:51.873Z,47.70
2017-12-11T16:15:17.736Z,51.30
2017-12-11T16:17:43.535Z,50.73
2017-12-11T16:20:09.284Z,48.60
2017-12-11T16:22:35.074Z,62.97
2017-12-11T16:25:01.033Z,54.73
2017-12-11T16:27:26.861Z,53.07
2017-12-11T16:29:52.679Z,56.03
2017-12-11T16:32:18.423Z,61.30
2017-12-11T16:34:44.166Z,52.50
2017-12-11T16:37:09.932Z,54.50
2017-12-11T16:39:35.748Z,51.07
2017-12-11T16:42:01.500Z,59.43
2017-12-11T16:44:27.296Z,48.97
2017-12-11T16:46:53.148Z,43.63
2017-12-11T16:49:18.972Z,44.93
2017-12-11T16:51:44.824Z,42.33
2017-12-11T16:54:10.603Z,54.17
2017-12-11T16:56:36.437Z,45.50
2017-12-11T16:59:02.248Z,41.70
2017-12-11T17:01:27.996Z,41.97
2017-12-11T17:03:53.751Z,47.20
2017-12-11T17:06:19.656Z,42.47
2017-12-11T17:08:45.400Z,38.73
2017-12-11T17:11:11.176Z,39.57
2017-12-11T17:13:36.911Z,37.40
2017-12-11T17:16:02.719Z,41.80
2017-12-11T17:18:28.458Z,43.03
2017-12-11T17:20:54.184Z,36.67
2017-12-11T17:23:19.927Z,46.70
2017-12-11T17:25:45.667Z,37.03
2017-12-11T17:28:11.523Z,35.70
2017-12-11T17:30:37.256Z,36.80
2017-12-11T17:33:03.066Z,32.63
2017-12-11T17:35:28.807Z,37.20
2017-12-11T17:37:54.791Z,33.60
2017-12-11T17:40:20.818Z,38.47
2017-12-11T17:42:46.585Z,37.35
2017-12-11T17:45:12.506Z,42.93
2017-12-11T17:47:38.263Z,41.20
2017-12-11T17:50:04.004Z,40.17
2017-12-11T17:52:29.774Z,42.77
2017-12-11T17:54:55.651Z,53.50
2017-12-11T17:57:21.448Z,76.77
2017-12-11T17:59:47.292Z,55.50
2017-12-11T18:02:13.035Z,43.37
2017-12-11T18:04:38.817Z,43.80
2017-12-11T18:07:04.560Z,41.67
2017-12-11T18:09:30.409Z,41.87
2017-12-11T18:11:56.184Z,44.63
2017-12-11T18:14:21.963Z,46.57
2017-12-11T18:16:47.703Z,45.07
2017-12-11T18:19:13.525Z,44.10
2017-12-11T18:21:39.380Z,45.43
2017-12-11T18:24:05.190Z,43.10
2017-12-11T18:26:30.934Z,49.50
2017-12-11T18:28:56.699Z,51.13
2017-12-11T18:31:22.444Z,47.33
2017-12-11T18:33:48.196Z,51.63
2017-12-11T18:36:13.936Z,52.13
2017-12-11T18:38:39.696Z,44.30
2017-12-11T18:41:05.427Z,46.10
2017-12-11T18:43:31.198Z,45.93
2017-12-11T18:45:57.507Z,42.87
2017-12-11T18:48:23.256Z,53.95
2017-12-11T18:50:49.012Z,52.13
2017-12-11T18:53:15.535Z,52.33
2017-12-11T18:55:41.283Z,50.87
2017-12-11T18:58:07.024Z,48.93
2017-12-11T19:00:32.781Z,52.67
2017-12-11T19:02:58.532Z,53.30
2017-12-11T19:05:24.284Z,54.37
2017-12-11T19:07:50.027Z,54.43
2017-12-11T19:10:15.787Z,52.17
2017-12-11T19:12:41.517Z,66.33
2017-12-11T19:15:07.283Z,61.83
2017-12-11T19:17:33.035Z,53.93
2017-12-11T19:19:58.783Z,61.13
2017-12-11T19:22:24.551Z,54.97
2017-12-11T19:24:50.291Z,58.83
2017-12-11T19:27:16.035Z,68.47
2017-12-11T19:29:41.780Z,52.17
2017-12-11T19:32:07.540Z,51.40
2017-12-11T19:34:33.278Z,42.63
2017-12-11T19:36:59.032Z,43.03
2017-12-11T19:39:24.780Z,45.40
2017-12-11T19:41:50.534Z,34.17
2017-12-11T19:44:16.264Z,33.67
2017-12-11T19:46:42.012Z,33.57
2017-12-11T19:49:07.771Z,34.63
2017-12-11T19:51:33.523Z,31.50
2017-12-11T19:53:59.272Z,35.20
2017-12-11T19:56:25.047Z,36.37
2017-12-11T19:58:50.792Z,33.63
2017-12-11T20:01:16.535Z,31.23
2017-12-11T20:03:42.297Z,30.93
2017-12-11T20:06:08.019Z,36.53
2017-12-11T20:08:33.751Z,35.57
2017-12-11T20:10:59.503Z,33.57
2017-12-11T20:13:25.259Z,37.40
2017-12-11T20:15:51.003Z,36.33
2017-12-11T20:18:16.751Z,37.93
2017-12-11T20:20:42.486Z,32.07
2017-12-11T20:23:08.245Z,38.87
2017-12-11T20:25:33.983Z,37.70
2017-12-11T20:27:59.731Z,35.90
2017-12-11T20:30:25.480Z,31.40
2017-12-11T20:32:51.228Z,33.63
2017-12-11T20:35:16.972Z,33.57
2017-12-11T20:37:42.727Z,37.50
2017-12-11T20:40:08.468Z,37.90
2017-12-11T20:42:34.200Z,41.83
2017-12-11T20:44:59.949Z,40.03
2017-12-11T20:47:25.700Z,39.23
2017-12-11T20:49:51.447Z,39.13
2017-12-11T20:52:17.186Z,36.63
2017-12-11T20:54:42.934Z,34.63
2017-12-11T20:57:08.663Z,33.90
2017-12-11T20:59:34.401Z,34.63
2017-12-11T21:02:00.136Z,37.70
2017-12-11T21:04:25.875Z,43.33
2017-12-11T21:06:51.627Z,37.60
2017-12-11T21:09:17.402Z,35.10
2017-12-11T21:11:43.130Z,38.77
2017-12-11T21:14:08.894Z,31.60
2017-12-11T21:16:34.648Z,34.53
2017-12-11T21:19:00.392Z,34.27
2017-12-11T21:21:26.140Z,30.30
2017-12-11T21:23:51.887Z,30.50
2017-12-11T21:26:17.636Z,31.63
2017-12-11T21:28:43.380Z,29.67
2017-12-11T21:31:09.249Z,31.13
2017-12-11T21:33:35.043Z,31.30
2017-12-11T21:36:00.806Z,29.07
2017-12-11T21:38:26.608Z,31.00
2017-12-11T21:40:52.367Z,29.77
2017-12-11T21:43:18.128Z,30.07
2017-12-11T21:45:43.871Z,27.53
2017-12-11T21:48:09.616Z,24.43
2017-12-11T21:50:35.364Z,28.17
2017-12-11T21:53:01.103Z,28.43
2017-12-11T21:55:26.864Z,29.83
2017-12-11T21:57:52.610Z,28.00
2017-12-11T22:00:18.416Z,28.43
2017-12-11T22:02:44.132Z,29.93
2017-12-11T22:05:09.893Z,29.37
2017-12-11T22:07:35.633Z,25.43
2017-12-11T22:10:01.384Z,23.90
2017-12-11T22:12:27.124Z,26.23
2017-12-11T22:14:52.883Z,25.77
2017-12-11T22:17:18.620Z,26.90
2017-12-11T22:19:44.375Z,25.13
2017-12-11T22:22:10.126Z,23.50
2017-12-11T22:24:35.858Z,24.93
2017-12-11T22:27:01.605Z,22.47
2017-12-11T22:29:27.363Z,23.87
2017-12-11T22:31:53.107Z,22.67
2017-12-11T22:34:18.865Z,24.17
2017-12-11T22:36:44.623Z,22.37
2017-12-11T22:39:10.412Z,22.67
2017-12-11T22:41:36.115Z,23.07
2017-12-11T22:44:01.851Z,22.10
2017-12-11T22:46:27.608Z,21.23
2017-12-11T22:48:53.343Z,21.87
2017-12-11T22:51:19.074Z,21.90
2017-12-11T22:53:44.819Z,22.73
2017-12-11T22:56:10.564Z,23.37
2017-12-11T22:58:36.315Z,21.37
2017-12-11T23:01:02.059Z,23.77
2017-12-11T23:03:27.818Z,24.00
2017-12-11T23:05:53.572Z,23.67
2017-12-11T23:08:19.331Z,25.27
2017-12-11T23:10:45.063Z,24.03
2017-12-11T23:13:10.815Z,22.30
2017-12-11T23:15:36.548Z,22.20
2017-12-11T23:18:02.315Z,22.30
2017-12-11T23:20:28.063Z,23.93
2017-12-11T23:22:53.808Z,24.00
2017-12-11T23:25:19.552Z,22.63
2017-12-11T23:27:45.303Z,23.27
2017-12-11T23:30:11.048Z,22.57
2017-12-11T23:32:36.795Z,21.30
2017-12-11T23:35:02.543Z,20.20
2017-12-11T23:37:28.280Z,20.30
2017-12-11T23:39:54.011Z,19.80
2017-12-11T23:42:19.751Z,20.03
2017-12-11T23:44:45.499Z,19.77
2017-12-11T23:47:11.287Z,19.93
2017-12-11T23:49:37.039Z,19.53
2017-12-11T23:52:02.770Z,18.20
2017-12-11T23:54:32.541Z,18.47
2017-12-11T23:56:58.289Z,17.73
2017-12-11T23:59:24.036Z,17.63
